Time;durP1;ratioP1;P1;durP2;ratioP2;P2;SDS_P1;SDS_P2;PMS_P1;PMS_P2;Temp;Humidity;BMP_temperature;BMP_pressure;BME280_temperature;BME280_humidity;BME280_pressure;Samples;Min_cycle;Max_cycle;Signal;HPM_P1;HPM_P2
2022/03/31 00:01:21;;;;;;;;;41.67;34.33;;;;;26.63;25.26;99537.03;5057847;28;45392;-81
2022/03/31 00:03:47;;;;;;;;;47.33;37.67;;;;;26.68;25.21;99534.88;5058289;28;45228;-81
2022/03/31 00:06:12;;;;;;;;;37.67;32.33;;;;;26.54;25.04;99515.91;5058078;28;45597;-81
2022/03/31 00:08:38;;;;;;;;;46.67;38.33;;;;;26.57;25.23;99526.56;5057946;28;45877;-82
2022/03/31 00:11:03;;;;;;;;;37.33;34.00;;;;;26.48;25.21;99500.88;5058025;28;45372;-81
2022/03/31 00:13:30;;;;;;;;;42.33;35.67;;;;;26.73;24.86;99534.59;5057923;28;46299;-81
2022/03/31 00:15:57;;;;;;;;;40.67;33.33;;;;;26.09;25.10;99441.88;5057910;28;45282;-81
2022/03/31 00:18:24;;;;;;;;;38.67;34.00;;;;;26.63;25.13;99539.75;5057590;28;45392;-81
2022/03/31 00:20:49;;;;;;;;;36.67;35.00;;;;;26.53;24.98;99536.78;5057514;28;45461;-81
2022/03/31 00:23:15;;;;;;;;;38.00;33.00;;;;;26.48;25.41;99513.59;5057788;28;45284;-82
2022/03/31 00:25:40;;;;;;;;;42.33;36.33;;;;;26.65;24.70;99526.94;5057585;28;45593;-82
2022/03/31 00:28:06;;;;;;;;;43.00;36.67;;;;;26.61;24.82;99525.41;5057682;28;45383;-81
2022/03/31 00:30:32;;;;;;;;;33.00;32.33;;;;;26.67;24.94;99530.41;5057332;28;45302;-81
2022/03/31 00:33:05;;;;;;;;;40.67;36.67;;;;;26.44;24.84;99498.44;5057788;28;45400;-80
2022/03/31 00:35:30;;;;;;;;;36.33;26.67;;;;;26.32;25.10;99481.97;5057770;28;45409;-80
2022/03/31 00:37:56;;;;;;;;;39.33;35.00;;;;;26.42;24.59;99519.44;5055654;28;47401;-80
2022/03/31 00:40:22;;;;;;;;;33.67;30.00;;;;;26.36;25.29;99513.44;5057529;28;45509;-80
2022/03/31 00:42:53;;;;;;;;;34.67;30.33;;;;;26.19;24.94;99478.34;5057299;28;45633;-80
2022/03/31 00:45:23;;;;;;;;;39.33;32.67;;;;;26.19;24.93;99500.09;5057209;28;45442;-81
2022/03/31 00:47:49;;;;;;;;;38.00;34.67;;;;;25.58;25.01;99413.41;5057020;28;45908;-80
2022/03/31 00:50:15;;;;;;;;;40.33;32.67;;;;;25.87;25.05;99497.59;5055869;28;45506;-80
2022/03/31 00:52:41;;;;;;;;;36.00;32.00;;;;;25.45;25.56;99418.78;5057189;28;45415;-80
2022/03/31 00:55:11;;;;;;;;;35.67;28.00;;;;;24.37;25.15;99221.22;5057344;28;45399;-81
2022/03/31 00:57:37;;;;;;;;;27.67;20.00;;;;;25.81;25.04;99463.56;5057995;28;46038;-81
2022/03/31 01:00:05;;;;;;;;;24.67;20.00;;;;;25.52;25.20;99425.56;5057858;28;45388;-81
2022/03/31 01:02:31;;;;;;;;;33.33;30.00;;;;;26.00;25.35;99498.53;5055909;28;45471;-81
2022/03/31 01:05:00;;;;;;;;;30.33;29.00;;;;;25.90;25.43;99475.66;5089806;27;45487;-81
2022/03/31 01:07:26;;;;;;;;;31.67;29.67;;;;;25.77;24.93;99450.28;5057096;28;45350;-81
2022/03/31 01:09:52;;;;;;;;;32.67;30.00;;;;;25.72;24.67;99445.13;5056685;28;45256;-81
2022/03/31 01:12:18;;;;;;;;;28.00;23.67;;;;;25.90;24.78;99474.81;5055972;28;45389;-81
2022/03/31 01:14:43;;;;;;;;;34.67;28.33;;;;;25.88;25.09;99472.19;5054953;28;45529;-81
2022/03/31 01:17:08;;;;;;;;;36.00;33.33;;;;;25.62;24.77;99428.56;5057050;28;46379;-81
2022/03/31 01:19:34;;;;;;;;;30.00;26.33;;;;;25.17;25.08;99347.25;5055707;28;45214;-81
2022/03/31 01:21:59;;;;;;;;;34.33;33.33;;;;;25.61;25.03;99398.78;5056268;28;45725;-81
2022/03/31 01:24:24;;;;;;;;;31.00;28.33;;;;;25.26;25.13;99362.06;5053911;28;45649;-81
2022/03/31 01:26:50;;;;;;;;;30.00;29.33;;;;;25.65;24.81;99420.22;5056690;28;45441;-81
2022/03/31 01:29:15;;;;;;;;;33.67;30.33;;;;;25.79;24.55;99449.19;5056353;28;45431;-82
2022/03/31 01:31:41;;;;;;;;;32.67;26.00;;;;;25.94;24.73;99471.78;5056833;28;45386;-81
2022/03/31 01:34:08;;;;;;;;;33.67;30.33;;;;;25.62;24.64;99417.69;5056800;28;45472;-81
2022/03/31 01:36:35;;;;;;;;;33.33;30.67;;;;;25.85;24.35;99464.25;5056618;28;46038;-81
2022/03/31 01:39:00;;;;;;;;;36.67;33.00;;;;;25.75;24.66;99461.25;5056391;28;45284;-81
2022/03/31 01:41:26;;;;;;;;;31.00;27.33;;;;;25.78;24.60;99457.44;5056572;28;45341;-81
2022/03/31 01:43:51;;;;;;;;;32.00;28.00;;;;;25.53;24.76;99421.03;5055921;28;45507;-81
2022/03/31 01:46:17;;;;;;;;;31.00;29.00;;;;;25.77;24.73;99451.13;5056567;28;45491;-81
2022/03/31 01:48:42;;;;;;;;;29.33;25.33;;;;;25.21;24.76;99369.63;5055048;28;45403;-81
2022/03/31 01:51:08;;;;;;;;;27.33;24.67;;;;;24.99;24.64;99326.69;5056627;28;45316;-83
2022/03/31 01:53:38;;;;;;;;;31.00;28.00;;;;;25.38;24.63;99387.56;5056442;28;45316;-83
2022/03/31 01:56:03;;;;;;;;;34.67;30.67;;;;;25.16;25.12;99339.19;5056167;28;46402;-83
2022/03/31 01:58:29;;;;;;;;;27.67;25.00;;;;;25.16;25.11;99334.66;5055723;28;45790;-83
2022/03/31 02:00:54;;;;;;;;;29.67;27.00;;;;;25.46;25.04;99403.38;5055942;28;45575;-83
2022/03/31 02:03:22;;;;;;;;;29.33;27.33;;;;;25.19;25.11;99358.00;5056635;28;45425;-83
2022/03/31 02:05:48;;;;;;;;;36.67;34.00;;;;;25.07;25.53;99356.94;5055932;28;45395;-83
2022/03/31 02:08:13;;;;;;;;;38.00;33.00;;;;;25.53;25.19;99423.72;5056289;28;45368;-83
2022/03/31 02:10:38;;;;;;;;;37.67;33.33;;;;;25.27;25.49;99390.94;5056336;28;45371;-83
2022/03/31 02:13:05;;;;;;;;;29.67;28.67;;;;;24.60;25.28;99277.59;5055868;28;45460;-83
2022/03/31 02:15:31;;;;;;;;;36.33;33.00;;;;;25.28;25.69;99394.53;5055840;28;46597;-83
2022/03/31 02:17:56;;;;;;;;;33.67;31.67;;;;;24.81;25.33;99318.78;5055837;28;45515;-82
2022/03/31 02:20:27;;;;;;;;;46.33;33.00;;;;;25.37;25.76;99423.81;5056366;28;45863;-82
2022/03/31 02:22:52;;;;;;;;;31.33;27.00;;;;;24.87;25.32;99343.78;5055631;28;45325;-82
2022/03/31 02:25:17;;;;;;;;;37.00;32.33;;;;;24.95;25.29;99339.59;5054234;28;47669;-83
2022/03/31 02:27:43;;;;;;;;;39.33;34.67;;;;;25.00;25.93;99372.72;5055511;28;45458;-82
2022/03/31 02:30:09;;;;;;;;;40.00;35.33;;;;;24.86;25.73;99345.59;5055955;28;45400;-82
2022/03/31 02:32:37;;;;;;;;;38.00;35.00;;;;;25.32;25.72;99435.00;5056074;28;45397;-82
2022/03/31 02:35:03;;;;;;;;;42.67;35.67;;;;;25.00;25.74;99378.16;5055419;28;46498;-82
2022/03/31 02:37:28;;;;;;;;;42.00;36.67;;;;;24.98;25.86;99379.25;5055668;28;45344;-81
2022/03/31 02:39:53;;;;;;;;;37.00;33.67;;;;;24.68;25.67;99352.19;5054443;28;45357;-81
2022/03/31 02:42:19;;;;;;;;;43.67;36.67;;;;;24.64;25.85;99349.66;5055271;28;45459;-82
2022/03/31 02:44:45;;;;;;;;;39.67;34.00;;;;;25.14;25.92;99438.84;5055380;28;46474;-82
2022/03/31 02:47:11;;;;;;;;;44.33;38.00;;;;;25.26;25.74;99443.50;5055375;28;45412;-82
2022/03/31 02:49:38;;;;;;;;;44.33;38.00;;;;;25.15;25.93;99441.44;5055878;28;45514;-82
2022/03/31 02:52:04;;;;;;;;;53.33;40.67;;;;;24.43;25.96;99331.94;5055256;28;45514;-82
2022/03/31 02:57:13;;;;;;;;;41.33;37.00;;;;;25.04;25.90;99443.09;5055522;28;45380;-82
2022/03/31 02:59:39;;;;;;;;;49.33;38.00;;;;;24.82;26.14;99411.84;5055520;28;45265;-82
2022/03/31 03:02:05;;;;;;;;;46.00;38.00;;;;;24.49;26.08;99347.88;5055341;28;45615;-82
2022/03/31 03:04:31;;;;;;;;;40.33;32.33;;;;;24.61;26.16;99351.69;5055220;28;45475;-82
2022/03/31 03:06:56;;;;;;;;;44.33;37.67;;;;;24.95;25.92;99401.09;5053772;28;45838;-82
2022/03/31 03:09:22;;;;;;;;;52.00;40.33;;;;;24.36;26.30;99322.44;5055413;28;45338;-82
2022/03/31 03:11:47;;;;;;;;;53.00;41.67;;;;;24.39;26.40;99327.72;5055385;28;45563;-82
2022/03/31 03:14:14;;;;;;;;;45.67;40.33;;;;;24.19;26.21;99324.38;5056968;28;46126;-82
2022/03/31 03:16:40;;;;;;;;;46.33;41.00;;;;;24.95;26.63;99412.84;5058885;28;45482;-83
2022/03/31 03:19:05;;;;;;;;;53.67;43.33;;;;;24.42;26.42;99338.38;5058683;28;45333;-82
2022/03/31 03:21:30;;;;;;;;;42.00;37.33;;;;;24.94;26.05;99415.66;5058743;28;45404;-82
2022/03/31 03:23:56;;;;;;;;;51.33;40.67;;;;;24.15;26.23;99279.47;5058039;28;46543;-82
2022/03/31 03:26:21;;;;;;;;;58.33;46.67;;;;;24.30;26.37;99329.13;5057476;28;45329;-82
2022/03/31 03:28:46;;;;;;;;;52.00;43.67;;;;;24.34;26.80;99355.06;5058716;28;45380;-82
2022/03/31 03:31:12;;;;;;;;;56.50;42.25;;;;;24.74;26.41;99397.88;5058625;28;45327;-82
2022/03/31 03:33:38;;;;;;;;;48.33;40.00;;;;;24.42;26.50;99347.34;5058403;28;45374;-81
2022/03/31 03:36:08;;;;;;;;;51.67;40.67;;;;;24.89;26.30;99404.22;5058230;28;45384;-81
2022/03/31 03:38:33;;;;;;;;;48.00;40.00;;;;;24.71;26.81;99398.09;5058430;28;45349;-81
2022/03/31 03:40:59;;;;;;;;;55.67;44.67;;;;;23.54;26.64;99192.75;5058293;28;45527;-81
2022/03/31 03:43:24;;;;;;;;;56.33;41.67;;;;;24.62;26.57;99375.97;5058557;28;45336;-81
2022/03/31 03:45:50;;;;;;;;;53.67;42.33;;;;;24.42;26.37;99357.34;5058488;28;45275;-81
2022/03/31 03:48:15;;;;;;;;;47.67;37.67;;;;;24.06;26.39;99304.38;5058695;28;45398;-81
2022/03/31 03:50:40;;;;;;;;;49.67;40.33;;;;;23.91;26.29;99282.69;5058564;28;45162;-81
2022/03/31 03:53:07;;;;;;;;;54.50;44.25;;;;;24.61;26.45;99392.34;5057619;28;46308;-81
2022/03/31 03:55:34;;;;;;;;;56.67;44.00;;;;;24.16;26.07;99305.56;5056862;28;45465;-81
2022/03/31 03:57:59;;;;;;;;;50.50;43.50;;;;;24.05;26.49;99305.34;5057854;28;45360;-81
2022/03/31 04:00:25;;;;;;;;;54.25;41.25;;;;;24.07;26.25;99323.25;5058158;28;45265;-81
2022/03/31 04:02:51;;;;;;;;;52.67;42.67;;;;;24.10;26.35;99304.09;5057939;28;46114;-81
2022/03/31 04:05:17;;;;;;;;;47.33;41.67;;;;;24.14;26.43;99313.78;5057650;28;45521;-81
2022/03/31 04:07:43;;;;;;;;;46.67;37.67;;;;;24.69;26.32;99398.19;5058060;28;45305;-81
2022/03/31 04:10:09;;;;;;;;;48.00;40.67;;;;;24.80;26.22;99397.53;5057452;28;45313;-81
2022/03/31 04:12:35;;;;;;;;;53.00;43.00;;;;;24.14;26.11;99294.81;5057765;28;45401;-81
2022/03/31 04:15:02;;;;;;;;;57.00;42.67;;;;;24.24;25.84;99330.38;5056199;28;45315;-80
2022/03/31 04:17:27;;;;;;;;;50.33;39.33;;;;;23.72;26.54;99295.53;5058065;28;45435;-80
2022/03/31 04:19:53;;;;;;;;;56.67;44.33;;;;;24.28;26.57;99402.41;5057544;28;45613;-81
2022/03/31 04:22:18;;;;;;;;;52.00;41.33;;;;;23.68;26.50;99299.38;5056675;28;48040;-80
2022/03/31 04:24:43;;;;;;;;;54.33;42.67;;;;;24.43;26.45;99405.16;5057350;28;45444;-80
2022/03/31 04:27:09;;;;;;;;;53.33;42.00;;;;;23.63;26.42;99280.72;5057561;28;45467;-80
2022/03/31 04:29:34;;;;;;;;;51.00;39.67;;;;;24.39;26.04;99406.31;5058058;28;45393;-80
2022/03/31 04:31:59;;;;;;;;;54.00;42.00;;;;;24.22;26.40;99386.50;5057226;28;46259;-79
2022/03/31 04:34:25;;;;;;;;;57.67;44.33;;;;;24.35;25.93;99410.19;5057416;28;45276;-80
2022/03/31 04:36:50;;;;;;;;;54.33;42.33;;;;;24.41;25.91;99388.13;5057251;28;45511;-80
2022/03/31 04:39:15;;;;;;;;;52.67;42.67;;;;;23.79;26.18;99286.09;5057335;28;45653;-80
2022/03/31 04:41:42;;;;;;;;;58.00;44.75;;;;;23.87;26.42;99342.53;5057352;28;45526;-79
2022/03/31 04:44:08;;;;;;;;;52.33;41.33;;;;;24.09;26.49;99412.56;5057161;28;45600;-80
2022/03/31 04:46:34;;;;;;;;;51.67;42.00;;;;;24.11;26.12;99411.53;5057191;28;45464;-80
2022/03/31 04:49:02;;;;;;;;;52.00;41.33;;;;;24.11;26.07;99421.50;5055843;28;45573;-80
2022/03/31 04:51:28;;;;;;;;;57.67;45.00;;;;;24.24;26.35;99416.22;5055457;28;47564;-80
2022/03/31 04:53:54;;;;;;;;;52.00;42.33;;;;;23.82;26.35;99359.00;5055706;28;45720;-80
2022/03/31 04:56:20;;;;;;;;;56.00;45.33;;;;;24.17;26.43;99404.88;5056901;28;45392;-78
2022/03/31 04:58:45;;;;;;;;;59.67;47.33;;;;;24.16;26.41;99411.25;5057033;28;45639;-79
2022/03/31 05:01:11;;;;;;;;;51.33;42.67;;;;;24.07;25.73;99382.00;5056718;28;45405;-79
2022/03/31 05:03:38;;;;;;;;;54.67;44.33;;;;;23.80;26.07;99366.38;5056440;28;45383;-78
2022/03/31 05:06:05;;;;;;;;;57.00;46.67;;;;;23.62;26.19;99338.53;5054999;28;45349;-78
2022/03/31 05:08:30;;;;;;;;;56.67;44.00;;;;;24.16;26.29;99408.53;5057115;28;45272;-78
2022/03/31 05:10:55;;;;;;;;;56.67;44.67;;;;;24.20;26.04;99403.81;5056647;28;45921;-78
2022/03/31 05:13:21;;;;;;;;;61.75;45.25;;;;;24.37;26.03;99413.66;5040558;28;45233;-78
2022/03/31 05:15:47;;;;;;;;;59.33;44.33;;;;;24.29;25.72;99408.72;5063009;28;45448;-79
2022/03/31 05:18:12;;;;;;;;;43.67;40.00;;;;;24.47;25.68;99418.44;5075552;27;45701;-79
2022/03/31 05:20:37;;;;;;;;;57.33;45.33;;;;;24.42;25.58;99415.13;5056449;28;45679;-78
2022/03/31 05:23:03;;;;;;;;;53.33;44.33;;;;;24.41;25.73;99412.50;5073785;27;48830;-78
2022/03/31 05:25:28;;;;;;;;;53.00;39.33;;;;;24.15;25.37;99368.88;5050125;27;46014;-78
2022/03/31 05:27:53;;;;;;;;;54.75;43.25;;;;;24.32;25.89;99409.38;5051605;28;45545;-79
2022/03/31 05:30:19;;;;;;;;;57.00;41.67;;;;;24.35;25.26;99424.59;5060985;28;45490;-80
2022/03/31 05:32:46;;;;;;;;;57.00;46.33;;;;;24.47;25.44;99433.81;5040448;28;45238;-80
2022/03/31 05:35:13;;;;;;;;;55.00;44.33;;;;;24.43;25.67;99433.16;5035956;28;45463;-80
2022/03/31 05:37:40;;;;;;;;;41.75;36.75;;;;;24.29;25.57;99435.81;5035577;28;45527;-81
2022/03/31 05:40:09;;;;;;;;;57.00;46.00;;;;;24.25;25.77;99435.09;5050586;28;45455;-80
2022/03/31 05:42:36;;;;;;;;;52.33;41.67;;;;;23.83;25.70;99336.41;5055175;28;45466;-81
2022/03/31 05:45:05;;;;;;;;;53.67;40.67;;;;;24.23;25.72;99434.34;5050514;28;45540;-81
2022/03/31 05:47:32;;;;;;;;;53.00;42.50;;;;;24.07;25.59;99390.13;5043754;28;45482;-81
2022/03/31 05:49:57;;;;;;;;;56.50;46.25;;;;;24.36;25.79;99431.78;5042325;28;46386;-81
2022/03/31 05:52:22;;;;;;;;;58.33;43.67;;;;;24.46;25.47;99427.53;5044632;28;55742;-81
2022/03/31 05:54:48;;;;;;;;;52.00;41.33;;;;;24.20;25.16;99382.13;5046017;28;46958;-81
2022/03/31 05:57:14;;;;;;;;;58.00;45.00;;;;;24.57;25.14;99429.59;5056176;28;45617;-80
2022/03/31 05:59:40;;;;;;;;;55.75;45.75;;;;;24.62;25.40;99446.47;5042064;28;45377;-79
2022/03/31 06:02:07;;;;;;;;;59.75;48.00;;;;;24.38;25.32;99426.25;5035770;28;45469;-78
2022/03/31 06:04:33;;;;;;;;;62.75;47.25;;;;;24.52;25.42;99456.13;5034648;28;45483;-78
2022/03/31 06:06:58;;;;;;;;;55.75;43.00;;;;;24.32;25.52;99447.31;5034973;28;45496;-82
2022/03/31 06:09:23;;;;;;;;;54.00;45.67;;;;;24.27;25.44;99432.31;5033662;28;47680;-78
2022/03/31 06:11:49;;;;;;;;;57.50;47.75;;;;;24.36;26.00;99453.47;5035588;28;45408;-80
2022/03/31 06:14:14;;;;;;;;;61.25;49.25;;;;;24.35;25.81;99456.25;5035288;28;45529;-79
2022/03/31 06:16:40;;;;;;;;;65.00;48.50;;;;;24.29;26.13;99444.81;5035660;28;45334;-78
2022/03/31 06:19:08;;;;;;;;;62.50;50.00;;;;;24.28;25.78;99453.03;5035064;28;45446;-79
2022/03/31 06:21:34;;;;;;;;;60.50;49.00;;;;;23.83;25.89;99382.44;5034966;28;45382;-79
2022/03/31 06:24:00;;;;;;;;;65.50;51.25;;;;;24.30;26.25;99465.53;5035111;28;45293;-78
2022/03/31 06:26:26;;;;;;;;;59.00;46.75;;;;;24.32;26.01;99455.47;5035164;28;45646;-78
2022/03/31 06:28:51;;;;;;;;;60.25;49.00;;;;;24.42;26.20;99460.34;5033686;28;48098;-78
2022/03/31 06:31:17;;;;;;;;;65.75;52.50;;;;;24.22;26.00;99426.28;5035308;28;45318;-78
2022/03/31 06:33:43;;;;;;;;;59.25;48.25;;;;;23.88;26.05;99412.88;5035950;28;46089;-81
2022/03/31 06:36:08;;;;;;;;;66.50;52.50;;;;;24.25;26.50;99470.34;5036040;28;45499;-78
2022/03/31 06:38:34;;;;;;;;;69.50;53.50;;;;;24.42;26.31;99476.63;5034983;28;45457;-78
2022/03/31 06:41:14;;;;;;;;;69.75;53.25;;;;;24.42;26.27;99473.91;5035265;28;45463;-78
2022/03/31 06:43:42;;;;;;;;;66.00;51.50;;;;;24.12;25.80;99429.53;5036860;28;45428;-80
2022/03/31 06:46:07;;;;;;;;;64.00;51.00;;;;;24.34;26.46;99460.78;5055582;28;45500;-78
2022/03/31 06:48:36;;;;;;;;;66.00;49.00;;;;;24.12;26.04;99412.38;5054142;28;45392;-78
2022/03/31 06:51:02;;;;;;;;;71.25;52.00;;;;;24.55;25.68;99468.63;5053724;28;45261;-79
2022/03/31 06:53:27;;;;;;;;;65.75;50.50;;;;;24.73;25.69;99483.81;5054984;28;45480;-79
2022/03/31 06:55:53;;;;;;;;;69.50;52.75;;;;;24.04;25.76;99385.75;5055162;28;45470;-79
2022/03/31 06:58:21;;;;;;;;;66.25;51.50;;;;;24.77;25.74;99468.25;5054742;28;46179;-80
2022/03/31 07:00:46;;;;;;;;;61.75;49.00;;;;;24.73;25.47;99453.13;5053575;28;45407;-79
2022/03/31 07:03:12;;;;;;;;;65.50;51.75;;;;;24.89;25.74;99469.31;5054943;28;45450;-79
2022/03/31 07:05:38;;;;;;;;;66.75;52.75;;;;;24.71;25.19;99419.78;5054909;28;45485;-79
2022/03/31 07:08:06;;;;;;;;;59.50;48.50;;;;;24.70;25.40;99437.00;5054744;28;46469;-79
2022/03/31 07:10:33;;;;;;;;;66.00;50.00;;;;;24.66;25.82;99453.47;5054827;28;45572;-78
2022/03/31 07:13:00;;;;;;;;;60.75;51.00;;;;;24.66;25.65;99461.59;5054990;28;46112;-79
2022/03/31 07:15:26;;;;;;;;;61.33;49.00;;;;;24.87;26.08;99466.72;5053463;28;45475;-80
2022/03/31 07:17:51;;;;;;;;;69.50;51.00;;;;;24.93;25.64;99457.31;5054870;28;46248;-80
2022/03/31 07:20:16;;;;;;;;;59.75;47.00;;;;;24.52;26.06;99398.31;5054578;28;45502;-80
2022/03/31 07:22:44;;;;;;;;;63.00;47.00;;;;;24.97;25.48;99443.47;5045542;28;45304;-79
2022/03/31 07:25:09;;;;;;;;;61.00;48.25;;;;;25.34;25.42;99441.22;5035171;28;45365;-78
2022/03/31 07:27:35;;;;;;;;;65.00;50.50;;;;;25.30;25.65;99444.16;5039016;28;45316;-78
2022/03/31 07:30:00;;;;;;;;;57.33;47.67;;;;;25.38;25.53;99463.59;5046820;28;45366;-77
2022/03/31 07:32:25;;;;;;;;;57.25;48.25;;;;;25.52;24.82;99465.44;5048849;28;45827;-77
2022/03/31 07:34:51;;;;;;;;;58.00;47.67;;;;;25.37;25.35;99456.41;5049613;28;45981;-77
2022/03/31 07:37:16;;;;;;;;;60.00;46.67;;;;;25.29;24.62;99445.16;5050065;28;46676;-77
2022/03/31 07:39:45;;;;;;;;;55.00;43.33;;;;;25.36;24.98;99448.34;5049743;28;45392;-77
2022/03/31 07:42:12;;;;;;;;;58.00;45.67;;;;;25.22;25.11;99436.50;5052119;28;45361;-77
2022/03/31 07:44:37;;;;;;;;;59.00;45.67;;;;;24.94;25.06;99397.53;5052920;28;45650;-77
2022/03/31 07:47:03;;;;;;;;;56.33;44.67;;;;;25.51;25.18;99469.09;5054310;28;45491;-76
2022/03/31 07:49:28;;;;;;;;;61.33;47.33;;;;;25.50;24.88;99465.53;5050794;28;45436;-78
2022/03/31 07:51:53;;;;;;;;;63.00;48.33;;;;;25.15;25.06;99435.16;5058026;28;45936;-78
2022/03/31 07:54:19;;;;;;;;;58.75;47.00;;;;;25.36;25.05;99470.06;5041337;28;45454;-78
2022/03/31 07:56:45;;;;;;;;;55.00;44.33;;;;;25.29;25.31;99456.88;5034526;28;46154;-78
2022/03/31 07:59:11;;;;;;;;;57.00;45.00;;;;;25.46;25.07;99472.13;5049479;28;45392;-82
2022/03/31 08:01:36;;;;;;;;;51.33;41.00;;;;;25.20;25.49;99460.16;5059687;28;45341;-78
2022/03/31 08:04:03;;;;;;;;;53.67;45.00;;;;;24.96;25.58;99430.00;5045204;28;45448;-78
2022/03/31 08:06:29;;;;;;;;;53.00;45.00;;;;;24.90;25.35;99480.09;5047262;28;45924;-79
2022/03/31 08:08:54;;;;;;;;;49.00;40.67;;;;;24.47;26.15;99458.22;5057628;28;45452;-79
2022/03/31 08:11:20;;;;;;;;;54.67;44.00;;;;;24.57;25.95;99472.09;5048380;28;45739;-79
2022/03/31 08:13:45;;;;;;;;;47.00;40.00;;;;;24.28;26.09;99434.06;5050768;28;45306;-80
2022/03/31 08:16:10;;;;;;;;;45.67;39.33;;;;;24.44;26.52;99452.97;5051097;28;45535;-78
2022/03/31 08:18:36;;;;;;;;;51.00;41.67;;;;;24.58;26.43;99484.69;5053630;28;45316;-78
2022/03/31 08:21:01;;;;;;;;;56.67;44.00;;;;;24.53;26.24;99476.84;5050473;28;45395;-78
2022/03/31 08:23:27;;;;;;;;;57.33;44.67;;;;;24.64;26.08;99478.94;5058146;28;45424;-78
2022/03/31 08:25:54;;;;;;;;;55.67;44.33;;;;;24.76;26.19;99496.31;5051200;27;45487;-78
2022/03/31 08:28:20;;;;;;;;;56.33;46.00;;;;;24.29;26.18;99441.22;5053643;28;45345;-79
2022/03/31 08:30:46;;;;;;;;;53.33;41.33;;;;;24.01;26.74;99455.50;5056868;28;45438;-78
2022/03/31 08:33:12;;;;;;;;;43.00;37.33;;;;;23.86;26.94;99489.72;5055515;28;45482;-78
2022/03/31 08:35:38;;;;;;;;;31.67;28.67;;;;;23.72;26.80;99523.00;5046596;27;46073;-78
2022/03/31 08:38:03;;;;;;;;;34.67;31.33;;;;;23.63;27.09;99513.56;5044487;28;45482;-78
2022/03/31 08:40:29;;;;;;;;;27.33;27.00;;;;;23.13;27.35;99507.19;5044159;28;45574;-78
2022/03/31 08:42:54;;;;;;;;;28.00;26.67;;;;;22.80;27.54;99508.00;5055481;28;45331;-78
2022/03/31 08:45:20;;;;;;;;;28.33;26.33;;;;;22.81;27.37;99460.19;5053284;28;45410;-78
2022/03/31 08:47:49;;;;;;;;;26.00;26.00;;;;;23.21;27.05;99534.72;5044996;28;45467;-78
2022/03/31 08:50:15;;;;;;;;;30.67;27.33;;;;;23.05;27.22;99545.47;5049875;28;45449;-78
2022/03/31 08:52:41;;;;;;;;;27.33;23.67;;;;;22.46;27.65;99501.59;5045807;28;45387;-78
2022/03/31 08:55:08;;;;;;;;;27.33;25.00;;;;;22.45;27.38;99507.97;5051655;28;45944;-78
2022/03/31 08:57:48;;;;;;;;;40.00;29.33;;;;;22.89;26.97;99545.34;5053622;27;45438;-78
2022/03/31 09:00:16;;;;;;;;;27.00;22.67;;;;;22.33;27.27;99478.81;5078696;27;45491;-78
2022/03/31 09:02:59;;;;;;;;;25.00;19.33;;;;;22.95;26.75;99563.09;5047580;28;45501;-79
2022/03/31 09:05:25;;;;;;;;;19.67;18.00;;;;;22.72;26.71;99539.94;5047617;28;45596;-78
2022/03/31 09:07:59;;;;;;;;;18.00;15.33;;;;;22.68;26.41;99568.94;5057641;27;45384;-79
2022/03/31 09:10:31;;;;;;;;;17.00;17.00;;;;;22.78;26.16;99586.50;5057318;28;45350;-79
2022/03/31 09:12:57;;;;;;;;;13.33;13.33;;;;;22.63;26.10;99587.25;5053547;28;45283;-78
2022/03/31 09:15:23;;;;;;;;;13.67;13.67;;;;;22.26;26.12;99592.59;5044789;28;45492;-80
2022/03/31 09:17:56;;;;;;;;;10.00;9.00;;;;;21.01;25.60;99370.81;5047074;28;45393;-77
2022/03/31 09:20:22;;;;;;;;;12.00;12.00;;;;;22.23;25.85;99556.72;5054096;28;45498;-78
2022/03/31 09:22:49;;;;;;;;;11.00;9.67;;;;;22.44;25.90;99604.34;5052300;28;45806;-79
2022/03/31 09:25:26;;;;;;;;;19.00;12.33;;;;;22.28;26.04;99617.69;5042678;28;46011;-78
2022/03/31 09:27:51;;;;;;;;;13.67;12.00;;;;;22.21;26.37;99621.66;5046967;28;46529;-78
2022/03/31 09:30:17;;;;;;;;;15.67;12.67;;;;;22.28;26.42;99628.50;5045743;28;45599;-78
2022/03/31 09:32:50;;;;;;;;;12.33;11.00;;;;;22.20;26.65;99640.63;5053013;28;45666;-77
2022/03/31 09:35:20;;;;;;;;;7.33;7.33;;;;;21.92;26.70;99656.28;5054495;28;45753;-77
2022/03/31 09:37:49;;;;;;;;;10.67;10.33;;;;;21.90;26.87;99641.97;5061067;28;45464;-77
2022/03/31 09:40:15;;;;;;;;;8.67;8.33;;;;;21.71;27.04;99647.31;5059233;28;45519;-77
2022/03/31 09:42:40;;;;;;;;;8.00;8.00;;;;;21.39;27.45;99608.25;5051836;28;45373;-77
2022/03/31 09:45:08;;;;;;;;;8.00;7.67;;;;;21.64;27.36;99650.38;5050708;28;45393;-76
2022/03/31 09:47:43;;;;;;;;;9.67;8.00;;;;;21.72;27.22;99664.41;5060437;28;45300;-77
2022/03/31 09:50:08;;;;;;;;;9.67;8.67;;;;;21.63;27.37;99616.22;5052708;28;45588;-78
2022/03/31 09:52:34;;;;;;;;;11.33;10.00;;;;;21.67;27.13;99652.94;5050859;28;45447;-76
2022/03/31 09:55:01;;;;;;;;;9.00;9.00;;;;;21.54;27.32;99628.31;5051720;28;45463;-77
2022/03/31 09:57:28;;;;;;;;;9.00;9.00;;;;;21.40;27.18;99639.69;5044684;28;45404;-76
2022/03/31 09:59:55;;;;;;;;;8.00;7.67;;;;;21.58;27.69;99651.53;5058113;28;45665;-76
2022/03/31 10:02:21;;;;;;;;;7.00;7.00;;;;;21.80;27.57;99669.47;5052425;28;45573;-79
2022/03/31 10:04:46;;;;;;;;;9.67;9.00;;;;;21.65;27.11;99665.63;5043647;28;46381;-76
2022/03/31 10:07:13;;;;;;;;;9.00;9.00;;;;;21.53;27.38;99638.25;5071803;27;45408;-80
2022/03/31 10:09:43;;;;;;;;;10.67;10.67;;;;;21.59;27.09;99634.41;5054241;28;45333;-78
2022/03/31 10:12:27;;;;;;;;;11.67;9.67;;;;;21.79;26.89;99671.28;5059767;27;45474;-77
2022/03/31 10:14:59;;;;;;;;;9.67;9.33;;;;;21.83;26.77;99659.41;5039762;28;45627;-78
2022/03/31 10:17:29;;;;;;;;;8.67;8.67;;;;;21.66;26.69;99624.19;5039672;28;45630;-78
2022/03/31 10:20:09;;;;;;;;;11.67;11.67;;;;;22.01;27.04;99675.72;5046289;28;45263;-79
2022/03/31 10:25:19;;;;;;;;;11.67;11.67;;;;;22.21;26.70;99685.63;5049305;28;45779;-78
2022/03/31 10:27:50;;;;;;;;;9.00;9.00;;;;;21.89;26.55;99669.91;5045687;28;45488;-78
2022/03/31 10:30:21;;;;;;;;;11.67;8.67;;;;;21.86;26.91;99680.00;5046340;28;45356;-78
2022/03/31 10:32:54;;;;;;;;;8.00;8.00;;;;;21.78;26.79;99669.53;5055294;28;45683;-78
2022/03/31 10:35:29;;;;;;;;;9.00;8.67;;;;;21.78;27.05;99685.72;5046050;28;46128;-77
2022/03/31 10:37:57;;;;;;;;;9.33;8.33;;;;;21.72;27.20;99680.63;5053487;28;45336;-80
2022/03/31 10:40:34;;;;;;;;;12.00;11.00;;;;;21.66;26.89;99697.06;5052416;28;45498;-77
2022/03/31 10:43:01;;;;;;;;;9.00;9.00;;;;;21.58;27.08;99690.19;5046742;28;45692;-82
2022/03/31 10:45:39;;;;;;;;;10.67;10.67;;;;;21.68;26.80;99690.66;5053501;28;46559;-82
2022/03/31 10:48:21;;;;;;;;;13.67;10.33;;;;;21.64;26.98;99691.72;5045454;27;45471;-80
2022/03/31 10:50:59;;;;;;;;;9.67;9.67;;;;;21.07;27.48;99654.56;5046383;28;45563;-78
2022/03/31 10:53:28;;;;;;;;;13.00;9.67;;;;;21.27;27.55;99678.94;5047479;28;45522;-81
2022/03/31 10:55:55;;;;;;;;;9.00;9.00;;;;;21.50;27.45;99678.81;5044960;28;46163;-80
2022/03/31 10:58:26;;;;;;;;;10.00;10.00;;;;;21.30;27.24;99593.34;5046725;28;45464;-79
2022/03/31 11:00:55;;;;;;;;;8.33;8.33;;;;;21.48;27.50;99604.28;5078070;27;45394;-80
2022/03/31 11:03:23;;;;;;;;;6.33;4.67;;;;;22.20;27.00;99675.75;5052638;28;45325;-81
2022/03/31 11:05:49;;;;;;;;;10.33;9.00;;;;;22.39;27.08;99678.50;5060225;28;46432;-80
2022/03/31 11:08:19;;;;;;;;;9.00;9.00;;;;;22.56;26.73;99670.47;5037985;27;45296;-80
2022/03/31 11:10:49;;;;;;;;;8.00;8.00;;;;;22.15;26.61;99664.28;5051653;28;45432;-80
2022/03/31 11:13:18;;;;;;;;;7.00;7.00;;;;;22.26;26.93;99676.34;5059348;28;45496;-79
2022/03/31 11:15:47;;;;;;;;;7.67;7.67;;;;;22.26;26.29;99670.06;5053730;28;45483;-82
2022/03/31 11:18:12;;;;;;;;;8.00;8.00;;;;;22.24;26.57;99666.56;5045533;28;45694;-79
2022/03/31 11:20:38;;;;;;;;;8.67;8.67;;;;;22.39;26.45;99668.56;5057414;28;45419;-81
2022/03/31 11:23:06;;;;;;;;;9.00;9.00;;;;;22.71;26.78;99668.84;5056402;27;45397;-79